createdAt,value
2022-11-03T00:01:47.978Z,97.40
2022-11-03T00:04:20.363Z,97.40
2022-11-03T00:06:51.004Z,97.40
2022-11-03T00:09:20.927Z,97.40
2022-11-03T00:11:51.807Z,97.40
2022-11-03T00:14:21.613Z,97.40
2022-11-03T00:16:49.943Z,97.40
2022-11-03T00:19:19.452Z,97.40
2022-11-03T00:21:48.201Z,97.40
2022-11-03T00:24:16.300Z,97.40
2022-11-03T00:26:44.935Z,97.40
2022-11-03T00:29:15.737Z,97.40
2022-11-03T00:31:45.905Z,97.40
2022-11-03T00:34:14.101Z,97.40
2022-11-03T00:36:45.625Z,97.40
2022-11-03T00:39:14.019Z,97.40
2022-11-03T00:41:45.617Z,97.40
2022-11-03T00:44:13.970Z,97.40
2022-11-03T00:46:42.124Z,97.40
2022-11-03T00:49:10.225Z,97.40
2022-11-03T00:51:38.312Z,97.40
2022-11-03T00:54:08.443Z,97.40
2022-11-03T00:56:39.229Z,97.40
2022-11-03T00:59:09.484Z,97.40
2022-11-03T01:01:45.966Z,97.40
2022-11-03T01:04:34.226Z,97.40
2022-11-03T01:07:03.623Z,97.40
2022-11-03T01:09:37.438Z,97.40
2022-11-03T01:12:08.701Z,97.40
2022-11-03T01:14:40.566Z,97.40
2022-11-03T01:17:10.478Z,97.40
2022-11-03T01:19:38.958Z,97.40
2022-11-03T01:22:10.623Z,97.40
2022-11-03T01:24:41.810Z,97.40
2022-11-03T01:27:13.036Z,97.40
2022-11-03T01:29:41.165Z,97.40
2022-11-03T01:32:09.886Z,97.40
2022-11-03T01:34:38.711Z,97.40
2022-11-03T01:37:07.307Z,97.40
2022-11-03T01:39:35.678Z,97.40
2022-11-03T01:42:05.562Z,97.40
2022-11-03T01:44:36.849Z,97.40
2022-11-03T01:47:14.670Z,97.40
2022-11-03T01:49:48.799Z,97.40
2022-11-03T01:52:22.912Z,97.40
2022-11-03T01:54:56.921Z,97.40
2022-11-03T01:57:33.932Z,97.40
2022-11-03T02:00:04.189Z,97.40
2022-11-03T02:02:41.710Z,97.40
2022-11-03T02:05:12.440Z,97.40
2022-11-03T02:07:45.448Z,97.40
2022-11-03T02:10:14.193Z,97.40
2022-11-03T02:12:45.268Z,97.40
2022-11-03T02:15:16.579Z,97.40
2022-11-03T02:17:47.828Z,97.40
2022-11-03T02:20:19.143Z,97.40
2022-11-03T02:23:28.261Z,97.40
2022-11-03T02:25:59.203Z,97.40
2022-11-03T02:28:30.060Z,97.40
2022-11-03T02:31:09.724Z,97.40
2022-11-03T02:33:47.313Z,97.40
2022-11-03T02:36:22.129Z,97.40
2022-11-03T02:38:56.216Z,97.40
2022-11-03T02:41:28.284Z,97.40
2022-11-03T02:43:57.869Z,97.40
2022-11-03T02:46:29.261Z,97.40
2022-11-03T02:48:57.643Z,97.40
2022-11-03T02:51:26.296Z,97.40
2022-11-03T02:54:04.224Z,97.40
2022-11-03T02:56:39.649Z,97.40
2022-11-03T02:59:12.265Z,97.40
2022-11-03T03:01:47.967Z,97.40
2022-11-03T03:04:24.672Z,97.40
2022-11-03T03:06:58.643Z,97.40
2022-11-03T03:09:33.156Z,97.40
2022-11-03T03:12:06.350Z,97.40
2022-11-03T03:14:41.209Z,97.40
2022-11-03T03:17:17.106Z,97.40
2022-11-03T03:19:51.776Z,97.40
2022-11-03T03:22:27.145Z,97.40
2022-11-03T03:25:00.603Z,97.40
2022-11-03T03:27:32.780Z,97.40
2022-11-03T03:30:05.775Z,97.40
2022-11-03T03:32:39.483Z,97.40
2022-11-03T03:35:17.157Z,97.40
2022-11-03T03:37:49.389Z,97.40
2022-11-03T03:40:24.214Z,97.40
2022-11-03T03:42:54.409Z,97.40
2022-11-03T03:45:23.155Z,97.40
2022-11-03T03:47:56.394Z,97.40
2022-11-03T03:50:31.315Z,97.40
2022-11-03T03:53:01.774Z,97.40
2022-11-03T03:55:38.885Z,97.40
2022-11-03T03:58:10.003Z,97.40
2022-11-03T04:00:42.603Z,97.40
2022-11-03T04:03:18.747Z,97.40
2022-11-03T04:05:47.923Z,97.40
2022-11-03T04:08:18.024Z,97.40
2022-11-03T04:11:07.436Z,97.40
2022-11-03T04:13:54.767Z,97.40
2022-11-03T04:16:40.867Z,97.40
2022-11-03T04:19:30.144Z,97.40
2022-11-03T04:22:15.810Z,97.40
2022-11-03T04:24:45.898Z,97.40
2022-11-03T04:27:38.800Z,97.40
2022-11-03T04:30:17.270Z,97.40
2022-11-03T04:32:47.383Z,97.40
2022-11-03T04:35:19.106Z,97.40
2022-11-03T04:37:52.944Z,97.40
2022-11-03T04:40:21.446Z,97.40
2022-11-03T04:42:49.678Z,97.40
2022-11-03T04:45:27.165Z,97.40
2022-11-03T04:47:56.138Z,97.40
2022-11-03T04:50:25.745Z,97.40
2022-11-03T04:52:58.373Z,97.40
2022-11-03T04:55:26.996Z,97.40
2022-11-03T04:57:59.885Z,97.40
2022-11-03T05:00:29.476Z,97.40
2022-11-03T05:02:57.943Z,97.40
2022-11-03T05:05:28.438Z,97.40
2022-11-03T05:07:59.560Z,97.40
2022-11-03T05:10:29.571Z,97.40
2022-11-03T05:12:58.751Z,97.40
2022-11-03T05:15:36.581Z,97.40
2022-11-03T05:18:17.853Z,97.40
2022-11-03T05:20:51.935Z,97.40
2022-11-03T05:23:22.668Z,97.40
2022-11-03T05:25:54.203Z,97.40
2022-11-03T05:28:27.164Z,97.40
2022-11-03T05:30:57.536Z,97.40
2022-11-03T05:33:32.578Z,97.40
2022-11-03T05:36:07.206Z,97.40
2022-11-03T05:38:35.975Z,97.40
2022-11-03T05:41:04.348Z,97.40
2022-11-03T05:43:32.484Z,97.40
2022-11-03T05:48:41.633Z,97.40
2022-11-03T05:51:20.661Z,97.40
2022-11-03T05:53:52.512Z,97.40
2022-11-03T05:56:23.909Z,97.40
2022-11-03T05:58:54.696Z,97.40
2022-11-03T06:01:30.302Z,97.40
2022-11-03T06:04:01.236Z,97.40
2022-11-03T06:06:35.893Z,97.40
2022-11-03T06:09:11.805Z,97.40
2022-11-03T06:11:40.618Z,97.40
2022-11-03T06:14:21.314Z,97.40
2022-11-03T06:16:55.850Z,97.40
2022-11-03T06:19:28.372Z,97.40
2022-11-03T06:22:00.134Z,97.40
2022-11-03T06:24:32.870Z,97.40
2022-11-03T06:27:01.136Z,97.40
2022-11-03T06:29:33.874Z,97.40
2022-11-03T06:32:03.539Z,97.40
2022-11-03T06:34:50.994Z,97.40
2022-11-03T06:37:26.187Z,97.40
2022-11-03T06:40:00.162Z,97.40
2022-11-03T06:42:32.941Z,97.40
2022-11-03T06:45:13.288Z,97.40
2022-11-03T06:47:42.744Z,97.40
2022-11-03T06:50:24.775Z,97.40
2022-11-03T06:52:56.086Z,97.40
2022-11-03T06:55:27.966Z,97.40
2022-11-03T06:58:00.500Z,97.40
2022-11-03T07:00:36.895Z,97.40
2022-11-03T07:03:15.667Z,97.40
2022-11-03T07:05:46.096Z,97.40
2022-11-03T07:08:24.750Z,97.40
2022-11-03T07:11:00.298Z,97.40
2022-11-03T07:13:30.341Z,97.40
2022-11-03T07:15:58.476Z,97.40
2022-11-03T07:18:32.513Z,97.40
2022-11-03T07:21:02.193Z,97.40
2022-11-03T07:23:31.687Z,97.40
2022-11-03T07:26:01.993Z,97.40
2022-11-03T07:28:36.718Z,97.40
2022-11-03T07:31:16.746Z,97.40
2022-11-03T07:33:47.035Z,97.40
2022-11-03T07:36:21.696Z,97.40
2022-11-03T07:38:54.579Z,97.40
2022-11-03T07:41:31.303Z,97.40
2022-11-03T07:44:03.173Z,97.40
2022-11-03T07:46:31.803Z,97.40
2022-11-03T07:49:03.293Z,97.40
2022-11-03T07:51:33.701Z,97.40
2022-11-03T07:54:05.234Z,97.40
2022-11-03T07:56:39.657Z,97.40
2022-11-03T07:59:17.536Z,97.40
2022-11-03T08:01:49.506Z,97.40
2022-11-03T08:04:24.011Z,97.40
2022-11-03T08:06:52.552Z,97.40
2022-11-03T08:09:21.166Z,97.40
2022-11-03T08:11:49.314Z,97.40
2022-11-03T08:14:17.813Z,97.40
2022-11-03T08:16:45.982Z,97.40
2022-11-03T08:19:14.109Z,97.40
2022-11-03T08:21:43.617Z,97.40
2022-11-03T08:24:11.685Z,97.40
2022-11-03T08:26:39.864Z,97.40
2022-11-03T08:29:07.975Z,97.40
2022-11-03T08:31:36.283Z,97.40
2022-11-03T08:34:04.387Z,97.40
2022-11-03T08:36:32.485Z,97.40
2022-11-03T08:39:01.956Z,97.40
2022-11-03T08:41:30.104Z,97.40
2022-11-03T08:43:58.441Z,97.40
2022-11-03T08:46:26.551Z,97.40
2022-11-03T08:48:54.633Z,97.40
2022-11-03T08:51:22.855Z,97.40
2022-11-03T08:53:53.880Z,97.40
2022-11-03T08:56:23.900Z,97.40
2022-11-03T08:58:52.088Z,97.40
2022-11-03T09:01:20.273Z,97.40
2022-11-03T09:03:48.502Z,97.40
2022-11-03T09:06:16.732Z,97.40
2022-11-03T09:11:34.359Z,96.80
2022-11-03T09:14:02.477Z,93.60
2022-11-03T09:16:30.606Z,93.60
2022-11-03T09:18:58.704Z,92.70
2022-11-03T09:21:26.797Z,92.50
2022-11-03T09:23:54.905Z,91.40
2022-11-03T09:26:23.015Z,91.80
2022-11-03T09:28:52.450Z,91.70
2022-11-03T09:31:20.993Z,90.60
2022-11-03T09:33:49.122Z,90.80
2022-11-03T09:36:17.201Z,88.60
2022-11-03T09:38:45.447Z,86.60
2022-11-03T09:41:26.172Z,87.90
2022-11-03T09:44:00.322Z,85.80
2022-11-03T09:46:30.783Z,84.10
2022-11-03T09:49:00.320Z,84.70
2022-11-03T09:51:29.508Z,84.50
2022-11-03T09:54:00.309Z,81.00
2022-11-03T09:56:28.679Z,81.50
2022-11-03T09:58:58.234Z,81.40
2022-11-03T10:01:26.589Z,81.90
2022-11-03T10:04:00.751Z,83.40
2022-11-03T10:06:28.882Z,85.30
2022-11-03T10:08:57.022Z,81.40
2022-11-03T10:11:25.130Z,80.00
2022-11-03T10:13:58.816Z,79.90
2022-11-03T10:16:28.882Z,78.70
2022-11-03T10:18:57.087Z,77.60
2022-11-03T10:21:29.261Z,78.60
2022-11-03T10:23:57.382Z,80.00
2022-11-03T10:26:25.534Z,81.50
2022-11-03T10:29:04.139Z,79.10
2022-11-03T10:31:37.497Z,81.40
2022-11-03T10:34:06.494Z,81.70
2022-11-03T10:36:36.193Z,79.70
2022-11-03T10:39:26.631Z,82.30
2022-11-03T10:41:59.740Z,83.20
2022-11-03T10:44:30.861Z,85.30
2022-11-03T10:47:01.196Z,84.00
2022-11-03T10:49:31.297Z,85.50
2022-11-03T10:52:17.114Z,85.80
2022-11-03T10:54:45.275Z,86.00
2022-11-03T10:57:13.631Z,87.50
2022-11-03T10:59:43.888Z,88.60
2022-11-03T11:02:18.805Z,90.40
2022-11-03T11:04:50.070Z,90.20
2022-11-03T11:07:26.311Z,89.90
2022-11-03T11:09:55.340Z,91.40
2022-11-03T11:12:25.819Z,91.30
2022-11-03T11:14:58.432Z,91.60
2022-11-03T11:17:49.523Z,92.00
2022-11-03T11:20:36.223Z,92.30
2022-11-03T11:23:52.384Z,92.70
2022-11-03T11:26:39.849Z,93.20
2022-11-03T11:29:36.200Z,94.10
2022-11-03T11:32:57.638Z,93.70
2022-11-03T11:36:06.534Z,94.70
2022-11-03T11:39:10.924Z,94.60
2022-11-03T11:42:14.545Z,95.60
2022-11-03T11:44:57.571Z,94.70
2022-11-03T11:47:31.548Z,95.50
2022-11-03T11:50:32.391Z,95.30
2022-11-03T11:53:14.179Z,95.40
2022-11-03T11:55:46.980Z,95.20
2022-11-03T11:58:27.978Z,95.60
2022-11-03T12:01:00.539Z,96.50
2022-11-03T12:03:37.843Z,97.40
2022-11-03T12:06:06.957Z,97.40
2022-11-03T12:08:35.408Z,97.40
2022-11-03T12:11:05.796Z,97.40
2022-11-03T12:13:51.201Z,97.40
2022-11-03T12:16:30.923Z,97.40
2022-11-03T12:19:36.817Z,97.40
2022-11-03T12:22:06.612Z,97.40
2022-11-03T12:24:40.349Z,97.40
2022-11-03T12:27:42.505Z,97.40
2022-11-03T12:30:17.307Z,97.40
2022-11-03T12:32:45.689Z,97.40
2022-11-03T12:35:15.623Z,97.40
2022-11-03T12:37:43.753Z,97.40
2022-11-03T12:40:14.573Z,97.40
2022-11-03T12:42:42.875Z,97.40
2022-11-03T12:45:13.490Z,97.40
2022-11-03T12:47:41.826Z,97.40
2022-11-03T12:50:10.949Z,97.40
2022-11-03T12:52:40.388Z,97.40
2022-11-03T12:55:09.464Z,97.40
2022-11-03T12:57:37.570Z,97.40
2022-11-03T13:00:07.329Z,97.40
2022-11-03T13:02:36.127Z,97.40
2022-11-03T13:05:04.843Z,97.40
2022-11-03T13:07:34.960Z,97.40
2022-11-03T13:10:05.497Z,97.40
2022-11-03T13:12:32.699Z,97.40
2022-11-03T13:15:02.300Z,97.40
2022-11-03T13:17:40.399Z,97.40
2022-11-03T13:20:18.986Z,97.40
2022-11-03T13:22:47.095Z,97.40
2022-11-03T13:25:16.795Z,97.40
2022-11-03T13:27:45.005Z,97.40
2022-11-03T13:30:14.293Z,97.40
2022-11-03T13:32:42.639Z,97.40
2022-11-03T13:35:13.983Z,97.40
2022-11-03T13:37:42.774Z,97.40
2022-11-03T13:40:35.672Z,97.40
2022-11-03T13:43:03.102Z,97.40
2022-11-03T13:45:31.180Z,97.40
2022-11-03T13:50:50.772Z,97.40
2022-11-03T13:56:10.223Z,97.40
2022-11-03T14:01:30.993Z,97.40
2022-11-03T14:06:47.556Z,97.40
2022-11-03T14:09:15.690Z,97.40
2022-11-03T14:12:01.590Z,97.40
2022-11-03T14:14:31.113Z,97.40
2022-11-03T14:16:59.241Z,97.40
2022-11-03T14:19:35.513Z,97.40
2022-11-03T14:22:06.452Z,97.40
2022-11-03T14:24:34.633Z,97.40
2022-11-03T14:27:02.878Z,97.40
2022-11-03T14:29:32.327Z,97.40
2022-11-03T14:32:00.500Z,97.40
2022-11-03T14:34:28.639Z,97.40
2022-11-03T14:36:56.878Z,97.40
2022-11-03T14:39:25.198Z,97.40
2022-11-03T14:42:04.302Z,97.40
2022-11-03T14:44:35.506Z,97.40
2022-11-03T14:47:05.645Z,97.40
2022-11-03T14:49:35.061Z,97.40
2022-11-03T14:52:05.329Z,97.40
2022-11-03T14:54:33.781Z,97.40
2022-11-03T14:57:01.957Z,97.40
2022-11-03T14:59:30.267Z,97.40
2022-11-03T15:02:00.667Z,97.40
2022-11-03T15:04:28.939Z,97.40
2022-11-03T15:06:57.267Z,97.40
2022-11-03T15:09:25.524Z,97.40
2022-11-03T15:11:53.703Z,97.40
2022-11-03T15:14:21.940Z,97.40
2022-11-03T15:16:50.132Z,97.40
2022-11-03T15:19:19.716Z,97.40
2022-11-03T15:21:48.175Z,97.40
2022-11-03T15:27:05.195Z,97.40
2022-11-03T15:29:33.278Z,97.40
2022-11-03T15:32:01.378Z,97.40
2022-11-03T15:34:31.221Z,97.40
2022-11-03T15:36:59.509Z,97.40
2022-11-03T15:39:29.621Z,97.40
2022-11-03T15:42:00.123Z,97.40
2022-11-03T15:44:28.319Z,97.40
2022-11-03T15:46:56.452Z,97.40
2022-11-03T15:49:24.597Z,97.40
2022-11-03T15:51:54.218Z,97.40
2022-11-03T15:54:22.424Z,97.40
2022-11-03T15:56:50.970Z,97.40
2022-11-03T15:59:19.225Z,97.40
2022-11-03T16:01:47.567Z,97.40
2022-11-03T16:04:16.600Z,97.40
2022-11-03T16:09:34.398Z,97.40
2022-11-03T16:12:02.782Z,97.40
2022-11-03T16:14:31.481Z,97.40
2022-11-03T16:16:59.661Z,97.40
2022-11-03T16:19:27.904Z,97.40
2022-11-03T16:21:56.192Z,97.40
2022-11-03T16:24:29.635Z,97.40
2022-11-03T16:27:04.961Z,97.40
2022-11-03T16:29:33.242Z,97.40
2022-11-03T16:32:01.376Z,97.40
2022-11-03T16:34:29.598Z,97.40
2022-11-03T16:36:57.869Z,97.40
2022-11-03T16:39:26.019Z,97.40
2022-11-03T16:41:54.995Z,97.40
2022-11-03T16:44:24.514Z,97.40
2022-11-03T16:46:52.630Z,97.40
2022-11-03T16:49:20.837Z,97.40
2022-11-03T16:51:49.047Z,97.40
2022-11-03T16:54:17.274Z,97.40
2022-11-03T16:56:47.593Z,97.40
2022-11-03T16:59:18.913Z,97.40
2022-11-03T17:01:48.490Z,97.40
2022-11-03T17:04:16.623Z,97.40
2022-11-03T17:06:44.864Z,97.40
2022-11-03T17:09:13.698Z,97.40
2022-11-03T17:11:41.971Z,97.40
2022-11-03T17:14:13.776Z,97.40
2022-11-03T17:16:45.541Z,97.40
2022-11-03T17:19:15.459Z,97.40
2022-11-03T17:21:43.929Z,97.40
2022-11-03T17:24:13.180Z,97.40
2022-11-03T17:26:52.643Z,97.40
2022-11-03T17:29:23.975Z,97.40
2022-11-03T17:31:52.252Z,97.40
2022-11-03T17:34:25.220Z,97.40
2022-11-03T17:36:54.341Z,97.40
2022-11-03T17:39:29.643Z,97.40
2022-11-03T17:42:14.413Z,97.40
2022-11-03T17:44:42.932Z,97.40
2022-11-03T17:47:11.144Z,97.40
2022-11-03T17:49:40.653Z,97.40
2022-11-03T17:52:14.776Z,97.40
2022-11-03T17:54:43.131Z,97.40
2022-11-03T17:57:17.446Z,97.40
2022-11-03T17:59:49.489Z,97.40
2022-11-03T18:02:20.128Z,97.40
2022-11-03T18:04:50.266Z,97.40
2022-11-03T18:07:24.257Z,97.40
2022-11-03T18:09:52.432Z,97.40
2022-11-03T18:12:42.427Z,97.40
2022-11-03T18:15:17.546Z,97.40
2022-11-03T18:17:46.520Z,97.40
2022-11-03T18:20:20.318Z,97.40
2022-11-03T18:22:48.771Z,97.40
2022-11-03T18:25:20.951Z,97.40
2022-11-03T18:27:49.527Z,97.40
2022-11-03T18:30:18.361Z,97.40
2022-11-03T18:32:47.092Z,97.40
2022-11-03T18:35:21.751Z,97.40
2022-11-03T18:37:50.266Z,97.40
2022-11-03T18:40:20.199Z,97.40
2022-11-03T18:42:48.426Z,97.40
2022-11-03T18:45:18.838Z,97.40
2022-11-03T18:47:47.120Z,97.40
2022-11-03T18:50:18.951Z,97.40
2022-11-03T18:52:51.905Z,97.40
2022-11-03T18:55:20.188Z,97.40
2022-11-03T18:57:49.469Z,97.40
2022-11-03T19:00:21.058Z,97.40
2022-11-03T19:02:50.356Z,97.40
2022-11-03T19:05:20.617Z,97.40
2022-11-03T19:07:50.926Z,97.40
2022-11-03T19:10:23.126Z,97.40
2022-11-03T19:12:51.258Z,97.40
2022-11-03T19:15:22.855Z,97.40
2022-11-03T19:17:53.779Z,97.40
2022-11-03T19:20:23.573Z,97.40
2022-11-03T19:22:52.663Z,97.40
2022-11-03T19:25:20.860Z,97.40
2022-11-03T19:27:50.177Z,97.40
2022-11-03T19:30:20.704Z,97.40
2022-11-03T19:32:51.381Z,97.40
2022-11-03T19:35:25.211Z,97.40
2022-11-03T19:38:03.873Z,97.40
2022-11-03T19:40:32.665Z,97.40
2022-11-03T19:42:59.875Z,97.40
2022-11-03T19:45:28.954Z,97.40
2022-11-03T19:50:50.253Z,97.40
2022-11-03T19:53:26.087Z,97.40
2022-11-03T19:55:54.726Z,97.40
2022-11-03T19:58:26.848Z,97.40
2022-11-03T20:00:56.108Z,97.40
2022-11-03T20:03:25.187Z,97.40
2022-11-03T20:05:57.531Z,97.40
2022-11-03T20:08:28.941Z,97.40
2022-11-03T20:10:57.738Z,97.40
2022-11-03T20:13:29.258Z,97.40
2022-11-03T20:16:01.140Z,97.40
2022-11-03T20:18:29.918Z,97.40
2022-11-03T20:20:59.628Z,97.40
2022-11-03T20:23:30.952Z,97.40
2022-11-03T20:25:59.541Z,97.40
2022-11-03T20:28:30.774Z,97.40
2022-11-03T20:31:00.889Z,97.40
2022-11-03T20:33:29.152Z,97.40
2022-11-03T20:35:59.202Z,97.40
2022-11-03T20:38:29.122Z,97.40
2022-11-03T20:40:59.270Z,97.40
2022-11-03T20:43:30.291Z,97.40
2022-11-03T20:45:59.350Z,97.40
2022-11-03T20:48:28.089Z,97.40
2022-11-03T20:50:57.569Z,97.40
2022-11-03T20:53:27.065Z,97.40
2022-11-03T20:55:55.159Z,97.40
2022-11-03T20:58:23.283Z,97.40
2022-11-03T21:00:51.572Z,97.40
2022-11-03T21:03:45.097Z,97.40
2022-11-03T21:06:14.726Z,97.40
2022-11-03T21:08:44.697Z,97.40
2022-11-03T21:11:27.447Z,97.40
2022-11-03T21:13:57.940Z,97.40
2022-11-03T21:16:44.605Z,97.40
2022-11-03T21:19:35.258Z,97.40
2022-11-03T21:22:03.820Z,97.40
2022-11-03T21:24:33.239Z,97.40
2022-11-03T21:27:01.333Z,97.40
2022-11-03T21:32:19.209Z,97.40
2022-11-03T21:34:47.300Z,97.40
2022-11-03T21:37:16.653Z,97.40
2022-11-03T21:39:47.273Z,97.40
2022-11-03T21:42:34.500Z,97.40
2022-11-03T21:45:02.626Z,97.40
2022-11-03T21:47:30.809Z,97.40
2022-11-03T21:49:57.955Z,97.40
2022-11-03T21:52:32.616Z,97.40
2022-11-03T21:55:04.143Z,97.40
2022-11-03T21:57:32.849Z,97.40
2022-11-03T22:00:00.950Z,97.40
2022-11-03T22:02:30.327Z,97.40
2022-11-03T22:04:58.972Z,97.40
2022-11-03T22:07:27.073Z,97.40
2022-11-03T22:09:55.191Z,97.40
2022-11-03T22:12:25.124Z,97.40
2022-11-03T22:15:10.606Z,97.40
2022-11-03T22:17:38.705Z,97.40
2022-11-03T22:20:25.479Z,97.40
2022-11-03T22:23:11.270Z,97.40
2022-11-03T22:25:57.025Z,97.40
2022-11-03T22:28:26.438Z,97.40
2022-11-03T22:31:12.101Z,97.40
2022-11-03T22:34:00.742Z,97.40
2022-11-03T22:36:28.454Z,97.40
2022-11-03T22:39:14.281Z,97.40
2022-11-03T22:42:04.975Z,97.40
2022-11-03T22:44:53.416Z,97.40
2022-11-03T22:47:21.508Z,97.40
2022-11-03T22:49:49.593Z,97.40
2022-11-03T22:52:17.695Z,97.40
2022-11-03T22:54:44.791Z,97.40
2022-11-03T22:57:13.178Z,97.40
2022-11-03T22:59:42.646Z,97.40
2022-11-03T23:02:10.893Z,97.40
2022-11-03T23:04:39.039Z,97.40
2022-11-03T23:07:07.141Z,97.40
2022-11-03T23:09:35.272Z,97.40
2022-11-03T23:12:03.485Z,97.40
2022-11-03T23:14:53.576Z,97.40
2022-11-03T23:17:43.176Z,97.40
2022-11-03T23:20:29.134Z,97.40
2022-11-03T23:22:57.196Z,97.40
2022-11-03T23:25:24.359Z,97.40
2022-11-03T23:27:53.761Z,97.40
2022-11-03T23:30:21.854Z,97.40
2022-11-03T23:32:51.269Z,97.40
2022-11-03T23:35:19.537Z,97.40
2022-11-03T23:37:47.661Z,97.40
2022-11-03T23:40:18.779Z,97.40
2022-11-03T23:42:49.537Z,97.40
2022-11-03T23:45:35.118Z,97.40
2022-11-03T23:48:22.651Z,97.40
2022-11-03T23:50:50.723Z,97.40
2022-11-03T23:53:18.810Z,97.40
2022-11-03T23:56:00.797Z,97.40
2022-11-03T23:58:29.092Z,97.40
